Time;durP1;ratioP1;P1;durP2;ratioP2;P2;SDS_P1;SDS_P2;PMS_P1;PMS_P2;Temp;Humidity;BMP_temperature;BMP_pressure;BME280_temperature;BME280_humidity;BME280_pressure;Samples;Min_cycle;Max_cycle;Signal;HPM_P1;HPM_P2
2022/03/28 00:01:42;;;;;;;17.30;4.67;;;7.50;99.90;;;;;;5035448;28;36378;-78
2022/03/28 00:04:08;;;;;;;27.63;5.60;;;7.50;99.90;;;;;;5033121;28;37645;-78
2022/03/28 00:06:34;;;;;;;31.03;5.50;;;7.50;99.90;;;;;;5072803;28;39825;-78
2022/03/28 00:09:00;;;;;;;22.57;5.50;;;7.50;99.90;;;;;;5044816;28;37977;-79
2022/03/28 00:11:27;;;;;;;26.63;6.53;;;7.50;99.90;;;;;;5038421;28;37169;-78
2022/03/28 00:13:53;;;;;;;29.47;5.47;;;7.50;99.90;;;;;;5035191;28;38891;-76
2022/03/28 00:16:19;;;;;;;25.20;5.27;;;7.40;99.90;;;;;;5036434;28;39052;-79
2022/03/28 00:18:45;;;;;;;19.53;4.50;;;7.40;99.90;;;;;;5044863;28;36185;-78
2022/03/28 00:21:11;;;;;;;37.80;7.03;;;7.40;99.90;;;;;;5054355;28;36580;-78
2022/03/28 00:23:37;;;;;;;26.23;4.97;;;7.40;99.90;;;;;;5059225;28;39026;-78
2022/03/28 00:26:06;;;;;;;25.67;5.67;;;7.40;99.90;;;;;;5061875;27;38318;-78
2022/03/28 00:28:32;;;;;;;28.57;6.27;;;7.40;99.90;;;;;;5052953;27;35790;-78
2022/03/28 00:30:58;;;;;;;24.93;4.80;;;7.40;99.90;;;;;;5058979;28;36747;-78
2022/03/28 00:33:24;;;;;;;40.07;5.63;;;7.40;99.90;;;;;;5060008;27;39275;-78
2022/03/28 00:35:50;;;;;;;25.70;5.33;;;7.30;99.90;;;;;;5054884;28;38368;-78
2022/03/28 00:38:17;;;;;;;28.33;5.27;;;7.20;99.90;;;;;;5056963;28;36478;-78
2022/03/28 00:40:43;;;;;;;27.77;5.90;;;7.20;99.90;;;;;;5054993;27;36999;-78
2022/03/28 00:43:10;;;;;;;28.93;5.73;;;7.20;99.90;;;;;;5056125;28;39206;-78
2022/03/28 00:45:37;;;;;;;30.83;5.97;;;7.30;99.90;;;;;;5060619;28;37504;-78
2022/03/28 00:48:05;;;;;;;26.00;6.33;;;7.30;99.90;;;;;;5053393;27;39089;-78
2022/03/28 00:50:32;;;;;;;23.00;5.73;;;7.30;99.90;;;;;;5051775;28;36388;-78
2022/03/28 00:52:59;;;;;;;30.23;5.43;;;7.30;99.90;;;;;;5056696;28;38868;-78
2022/03/28 00:55:26;;;;;;;31.43;5.83;;;7.40;99.90;;;;;;5058862;27;37545;-78
2022/03/28 00:57:53;;;;;;;25.30;5.27;;;7.40;99.90;;;;;;5056861;27;38488;-78
2022/03/28 01:00:19;;;;;;;23.93;5.37;;;7.40;99.90;;;;;;5055486;28;37363;-78
2022/03/28 01:02:46;;;;;;;32.73;6.47;;;7.40;99.90;;;;;;5052946;28;40509;-77
2022/03/28 01:05:13;;;;;;;32.47;6.47;;;7.40;99.90;;;;;;5051460;28;37625;-78
2022/03/28 01:07:40;;;;;;;29.73;6.50;;;7.30;99.90;;;;;;5056089;27;37927;-78
2022/03/28 01:10:10;;;;;;;23.80;4.97;;;7.30;99.90;;;;;;5055897;27;36015;-78
2022/03/28 01:12:38;;;;;;;31.77;5.77;;;7.30;99.90;;;;;;5062245;27;39570;-78
2022/03/28 01:15:04;;;;;;;27.77;5.33;;;7.30;99.90;;;;;;5062728;27;39289;-78
2022/03/28 01:20:16;;;;;;;24.53;5.23;;;7.20;99.90;;;;;;5057689;27;37517;-78
2022/03/28 01:22:42;;;;;;;32.30;5.53;;;7.20;99.90;;;;;;5058647;28;38669;-78
2022/03/28 01:25:08;;;;;;;26.33;5.47;;;7.20;99.90;;;;;;5047300;27;38518;-78
2022/03/28 01:27:37;;;;;;;28.67;5.43;;;7.20;99.90;;;;;;5056409;27;37213;-78
2022/03/28 01:30:07;;;;;;;25.63;5.83;;;7.20;99.90;;;;;;5053177;27;37804;-78
2022/03/28 01:32:33;;;;;;;26.70;5.57;;;7.10;99.90;;;;;;5054030;28;40775;-78
2022/03/28 01:34:59;;;;;;;31.90;5.03;;;7.10;99.90;;;;;;5060590;28;37408;-78
2022/03/28 01:37:25;;;;;;;24.27;5.40;;;7.00;99.90;;;;;;5049745;28;36911;-78
2022/03/28 01:39:51;;;;;;;27.57;6.43;;;7.00;99.90;;;;;;5057198;28;36227;-78
2022/03/28 01:42:17;;;;;;;32.20;5.80;;;6.90;99.90;;;;;;5058392;27;38572;-78
2022/03/28 01:44:49;;;;;;;22.90;5.43;;;6.90;99.90;;;;;;5071056;28;37897;-78
2022/03/28 01:47:16;;;;;;;26.30;6.27;;;6.90;99.90;;;;;;5057193;28;37226;-78
2022/03/28 01:49:42;;;;;;;26.37;5.70;;;7.00;99.90;;;;;;5056919;28;37297;-78
2022/03/28 01:52:08;;;;;;;28.53;6.23;;;7.00;99.90;;;;;;5054423;27;38386;-78
2022/03/28 01:54:34;;;;;;;31.67;5.57;;;7.00;99.90;;;;;;5059312;28;38643;-78
2022/03/28 01:57:00;;;;;;;33.20;6.07;;;6.90;99.90;;;;;;5060990;27;38450;-79
2022/03/28 01:59:26;;;;;;;30.70;6.13;;;6.90;99.90;;;;;;5053640;28;46799;-78
2022/03/28 02:01:52;;;;;;;31.10;5.50;;;6.80;99.90;;;;;;5047135;28;37823;-78
2022/03/28 02:04:18;;;;;;;43.30;6.80;;;6.90;99.90;;;;;;5064291;28;37240;-78
2022/03/28 02:06:45;;;;;;;30.13;5.70;;;6.90;99.90;;;;;;5057251;28;36667;-78
2022/03/28 02:09:11;;;;;;;32.43;8.37;;;7.00;99.90;;;;;;5059948;28;37829;-78
2022/03/28 02:11:37;;;;;;;29.00;6.47;;;6.90;99.90;;;;;;5057193;27;40183;-79
2022/03/28 02:14:04;;;;;;;34.43;5.73;;;7.00;99.90;;;;;;5058153;27;38557;-78
2022/03/28 02:16:30;;;;;;;36.20;6.13;;;7.00;99.90;;;;;;5058413;28;37345;-78
2022/03/28 02:18:57;;;;;;;28.93;5.97;;;6.90;99.90;;;;;;5058468;28;37465;-78
2022/03/28 02:21:23;;;;;;;34.80;6.30;;;6.90;99.90;;;;;;5058127;28;38725;-78
2022/03/28 02:23:50;;;;;;;19.97;5.30;;;6.80;99.90;;;;;;5057994;28;39058;-78
2022/03/28 02:26:16;;;;;;;30.40;6.33;;;6.80;99.90;;;;;;5089715;27;36806;-78
2022/03/28 02:28:42;;;;;;;31.37;5.37;;;6.70;99.90;;;;;;5055547;27;37910;-78
2022/03/28 02:31:10;;;;;;;24.47;5.80;;;6.70;99.90;;;;;;5058838;28;37844;-78
2022/03/28 02:33:36;;;;;;;27.47;5.00;;;6.70;99.90;;;;;;5064953;28;37960;-78
2022/03/28 02:36:03;;;;;;;28.00;6.47;;;6.70;99.90;;;;;;5059928;27;37485;-78
2022/03/28 02:38:29;;;;;;;23.70;5.27;;;6.70;99.90;;;;;;5061690;28;37432;-78
2022/03/28 02:40:55;;;;;;;42.43;6.83;;;6.60;99.90;;;;;;5061607;28;37826;-78
2022/03/28 02:43:23;;;;;;;26.27;5.80;;;6.60;99.90;;;;;;5060269;28;37295;-78
2022/03/28 02:45:49;;;;;;;38.13;6.27;;;6.60;99.90;;;;;;5058036;28;37735;-78
2022/03/28 02:48:15;;;;;;;26.67;6.63;;;6.50;99.90;;;;;;5060923;27;36479;-78
2022/03/28 02:50:41;;;;;;;34.50;6.20;;;6.60;99.90;;;;;;5058838;28;38511;-78
2022/03/28 02:53:07;;;;;;;39.97;7.43;;;6.50;99.90;;;;;;5057258;28;38800;-78
2022/03/28 02:55:33;;;;;;;39.67;6.97;;;6.60;99.90;;;;;;5053737;28;36845;-78
2022/03/28 02:57:59;;;;;;;25.07;5.77;;;6.60;99.90;;;;;;5038913;28;36162;-78
2022/03/28 03:00:25;;;;;;;34.10;7.23;;;6.50;99.90;;;;;;5056305;27;40053;-78
2022/03/28 03:02:51;;;;;;;25.33;6.53;;;6.50;99.90;;;;;;5052382;28;37332;-78
2022/03/28 03:05:17;;;;;;;28.87;6.53;;;6.40;99.90;;;;;;5050430;28;37795;-78
2022/03/28 03:07:43;;;;;;;27.43;5.83;;;6.30;99.90;;;;;;5063313;27;36839;-78
2022/03/28 03:10:10;;;;;;;34.17;7.03;;;6.20;99.90;;;;;;5048529;27;37903;-78
2022/03/28 03:12:36;;;;;;;28.00;5.67;;;6.20;99.90;;;;;;5059115;28;38706;-78
2022/03/28 03:15:03;;;;;;;29.50;5.80;;;6.10;99.90;;;;;;5050922;28;38761;-78
2022/03/28 03:17:29;;;;;;;33.43;6.77;;;6.10;99.90;;;;;;5088010;28;36668;-78
2022/03/28 03:19:55;;;;;;;41.37;7.90;;;6.10;99.90;;;;;;5087229;27;40386;-78
2022/03/28 03:22:21;;;;;;;25.73;5.97;;;6.00;99.90;;;;;;5059552;28;38479;-78
2022/03/28 03:24:48;;;;;;;29.37;6.20;;;6.10;99.90;;;;;;5059328;28;39433;-78
2022/03/28 03:27:14;;;;;;;28.77;6.30;;;6.10;99.90;;;;;;5058906;27;38218;-78
2022/03/28 03:29:41;;;;;;;25.27;6.00;;;6.10;99.90;;;;;;5055791;27;39474;-78
2022/03/28 03:32:07;;;;;;;30.33;6.97;;;6.10;99.90;;;;;;5044506;27;38071;-78
2022/03/28 03:34:34;;;;;;;32.17;6.43;;;6.10;99.90;;;;;;5048335;27;38176;-78
2022/03/28 03:37:01;;;;;;;47.43;7.63;;;6.20;99.90;;;;;;5049417;27;37962;-78
2022/03/28 03:39:28;;;;;;;37.07;7.20;;;6.10;99.90;;;;;;5060539;28;48743;-78
2022/03/28 03:41:54;;;;;;;28.77;6.93;;;6.10;99.90;;;;;;5053741;28;38852;-78
2022/03/28 03:44:20;;;;;;;39.43;7.17;;;6.20;99.90;;;;;;5056709;27;38484;-78
2022/03/28 03:46:47;;;;;;;29.30;6.33;;;6.20;99.90;;;;;;5064233;27;37083;-78
2022/03/28 03:49:15;;;;;;;39.20;8.50;;;6.20;99.90;;;;;;5053446;28;39540;-79
2022/03/28 03:51:42;;;;;;;40.77;8.27;;;6.20;99.90;;;;;;5051820;27;36382;-78
2022/03/28 03:54:08;;;;;;;27.87;6.23;;;6.20;99.90;;;;;;5057450;27;34755;-78
2022/03/28 03:56:34;;;;;;;34.53;6.87;;;6.10;99.90;;;;;;5054967;28;36159;-78
2022/03/28 03:59:01;;;;;;;38.27;7.40;;;6.00;99.90;;;;;;5049363;28;38647;-78
2022/03/28 04:01:27;;;;;;;28.10;6.87;;;5.90;99.90;;;;;;5051724;28;38083;-77
2022/03/28 04:03:53;;;;;;;32.50;7.10;;;5.80;99.90;;;;;;5050914;28;35326;-78
2022/03/28 04:06:19;;;;;;;24.93;6.97;;;5.90;99.90;;;;;;5047777;27;36620;-78
2022/03/28 04:08:46;;;;;;;21.33;6.90;;;5.80;99.90;;;;;;5063988;27;38198;-78
2022/03/28 04:11:12;;;;;;;40.10;8.17;;;5.80;99.90;;;;;;5044910;28;39084;-78
2022/03/28 04:13:38;;;;;;;29.77;6.97;;;5.70;99.90;;;;;;5059418;27;37999;-78
2022/03/28 04:16:04;;;;;;;25.73;8.50;;;5.60;99.90;;;;;;5054508;28;36634;-77
2022/03/28 04:18:30;;;;;;;40.03;8.43;;;5.50;99.90;;;;;;5056513;28;37808;-78
2022/03/28 04:20:56;;;;;;;33.63;6.63;;;5.50;99.90;;;;;;5054950;28;39131;-78
2022/03/28 04:23:24;;;;;;;31.10;6.73;;;5.40;99.90;;;;;;5051383;28;37417;-78
2022/03/28 04:25:51;;;;;;;36.50;6.90;;;5.40;99.90;;;;;;5085989;27;36610;-78
2022/03/28 04:28:17;;;;;;;40.67;8.73;;;5.30;99.90;;;;;;5057270;27;38625;-78
2022/03/28 04:30:43;;;;;;;29.10;6.83;;;5.40;99.90;;;;;;5061619;27;38982;-78
2022/03/28 04:33:11;;;;;;;32.13;8.50;;;5.40;99.90;;;;;;5059744;27;37671;-78
2022/03/28 04:35:39;;;;;;;36.80;8.10;;;5.50;99.90;;;;;;5062948;28;36366;-78
2022/03/28 04:38:07;;;;;;;33.17;8.10;;;5.50;99.90;;;;;;5058675;28;39327;-78
2022/03/28 04:40:36;;;;;;;35.97;8.87;;;5.50;99.90;;;;;;5060371;27;38447;-78
2022/03/28 04:43:03;;;;;;;26.80;7.30;;;5.40;99.90;;;;;;5054699;28;37015;-78
2022/03/28 04:45:30;;;;;;;31.40;7.57;;;5.40;99.90;;;;;;5056293;28;37205;-78
2022/03/28 04:47:57;;;;;;;33.63;7.83;;;5.40;99.90;;;;;;5053297;27;38935;-78
2022/03/28 04:50:24;;;;;;;32.40;7.30;;;5.40;99.90;;;;;;5049106;28;38299;-78
2022/03/28 04:52:50;;;;;;;32.10;7.97;;;5.30;99.90;;;;;;5050388;28;36676;-78
2022/03/28 04:55:16;;;;;;;35.73;8.77;;;5.30;99.90;;;;;;5050108;27;36567;-77
2022/03/28 04:57:42;;;;;;;29.10;7.70;;;5.20;99.90;;;;;;5054255;28;38549;-77
2022/03/28 05:00:10;;;;;;;24.63;7.47;;;5.20;99.90;;;;;;5052151;27;39275;-76
2022/03/28 05:02:37;;;;;;;34.40;7.00;;;5.10;99.90;;;;;;5063856;27;36810;-76
2022/03/28 05:05:04;;;;;;;26.43;8.00;;;5.00;99.90;;;;;;5045964;27;37519;-75
2022/03/28 05:07:31;;;;;;;27.17;7.77;;;5.00;99.90;;;;;;5057322;28;37549;-74
2022/03/28 05:09:59;;;;;;;28.47;8.03;;;5.00;99.90;;;;;;5052128;28;38809;-73
2022/03/28 05:12:26;;;;;;;24.40;6.67;;;4.90;99.90;;;;;;5056796;27;37918;-77
2022/03/28 05:14:53;;;;;;;29.57;7.00;;;4.90;99.90;;;;;;5074910;27;35846;-78
2022/03/28 05:17:24;;;;;;;32.43;6.80;;;4.90;99.90;;;;;;5034904;28;38675;-76
2022/03/28 05:19:50;;;;;;;30.80;8.47;;;4.80;99.90;;;;;;5037685;28;37503;-77
2022/03/28 05:22:17;;;;;;;40.77;8.67;;;4.80;99.90;;;;;;5039814;28;39925;-75
2022/03/28 05:24:44;;;;;;;41.33;8.57;;;4.80;99.90;;;;;;5037945;28;35844;-76
2022/03/28 05:27:10;;;;;;;33.37;8.93;;;4.80;99.90;;;;;;5035963;28;38670;-75
2022/03/28 05:29:36;;;;;;;27.50;8.23;;;4.80;99.90;;;;;;5039630;28;38745;-77
2022/03/28 05:32:03;;;;;;;32.27;8.83;;;4.90;99.90;;;;;;5045393;28;38666;-77
2022/03/28 05:34:30;;;;;;;29.90;7.63;;;5.00;99.90;;;;;;5038433;28;37307;-77
2022/03/28 05:36:58;;;;;;;34.17;7.97;;;5.00;99.90;;;;;;5034643;28;38710;-76
2022/03/28 05:39:25;;;;;;;42.03;9.40;;;5.10;99.90;;;;;;5043794;27;38467;-76
2022/03/28 05:41:51;;;;;;;30.90;8.40;;;5.10;99.90;;;;;;5040688;28;37254;-78
2022/03/28 05:44:19;;;;;;;42.00;10.10;;;5.10;99.90;;;;;;5045956;28;35876;-81
2022/03/28 05:46:45;;;;;;;38.83;8.77;;;5.10;99.90;;;;;;5057505;28;38122;-78
2022/03/28 05:49:11;;;;;;;31.07;8.70;;;5.10;99.90;;;;;;5058238;27;37189;-78
2022/03/28 05:51:37;;;;;;;37.33;10.10;;;5.20;99.90;;;;;;5060706;27;38413;-79
2022/03/28 05:54:03;;;;;;;39.47;10.00;;;5.20;99.90;;;;;;5065253;27;37740;-76
2022/03/28 05:56:29;;;;;;;36.97;9.67;;;5.20;99.90;;;;;;5068443;28;39144;-80
2022/03/28 05:58:55;;;;;;;41.27;10.00;;;5.20;99.90;;;;;;5059744;27;38419;-74
2022/03/28 06:01:22;;;;;;;41.23;9.80;;;5.40;99.90;;;;;;5063731;27;37096;-81
2022/03/28 06:03:48;;;;;;;44.53;11.27;;;5.40;99.90;;;;;;5064956;28;37526;-80
2022/03/28 06:06:14;;;;;;;30.97;11.40;;;5.40;99.90;;;;;;5091430;27;37859;-80
2022/03/28 06:08:40;;;;;;;41.60;11.93;;;5.50;99.90;;;;;;5095745;27;38221;-79
2022/03/28 06:11:06;;;;;;;36.77;11.20;;;5.50;99.90;;;;;;5053637;28;38971;-79
2022/03/28 06:13:33;;;;;;;37.53;11.87;;;5.50;99.90;;;;;;5044620;27;36321;-79
2022/03/28 06:16:00;;;;;;;34.67;11.40;;;5.60;99.90;;;;;;5038676;28;39963;-78
2022/03/28 06:18:26;;;;;;;40.07;12.03;;;5.60;99.90;;;;;;5053804;28;47063;-77
2022/03/28 06:20:55;;;;;;;35.33;12.07;;;5.70;99.90;;;;;;5078905;27;38455;-82
2022/03/28 06:23:29;;;;;;;46.17;13.93;;;5.70;99.90;;;;;;5083036;28;36793;-82
2022/03/28 06:26:00;;;;;;;37.50;12.07;;;5.80;99.90;;;;;;5074680;28;40272;-83
2022/03/28 06:31:55;;;;;;;36.93;11.87;;;5.80;99.90;;;;;;5069706;22;51502;-79
2022/03/28 06:34:21;;;;;;;26.13;10.50;;;5.80;99.90;;;;;;5060699;28;38100;-79
2022/03/28 06:36:47;;;;;;;36.03;13.27;;;5.90;99.90;;;;;;5065718;28;37460;-78
2022/03/28 06:39:14;;;;;;;34.20;12.43;;;5.90;99.90;;;;;;5066088;28;38929;-78
2022/03/28 06:41:40;;;;;;;33.67;12.17;;;6.00;99.90;;;;;;5066184;28;37143;-78
2022/03/28 06:44:11;;;;;;;40.30;12.80;;;6.10;99.90;;;;;;5067475;28;37939;-78
2022/03/28 06:46:45;;;;;;;38.83;12.30;;;6.10;99.90;;;;;;5054971;28;39902;-78
2022/03/28 06:49:11;;;;;;;43.00;13.80;;;6.10;99.90;;;;;;5067565;28;38816;-78
2022/03/28 06:51:37;;;;;;;42.00;13.63;;;6.10;99.90;;;;;;5056229;28;39474;-79
2022/03/28 06:54:05;;;;;;;40.17;13.23;;;6.20;99.90;;;;;;5059722;28;37853;-79
2022/03/28 06:56:31;;;;;;;40.83;13.07;;;6.30;99.90;;;;;;5069456;27;38541;-78
2022/03/28 06:58:57;;;;;;;33.20;12.60;;;6.40;99.90;;;;;;5066387;28;38704;-80
2022/03/28 07:01:24;;;;;;;40.43;12.67;;;6.40;99.90;;;;;;5071678;28;38067;-79
2022/03/28 07:03:50;;;;;;;42.50;13.10;;;6.40;99.90;;;;;;5069632;28;37611;-79
2022/03/28 07:06:16;;;;;;;36.40;13.43;;;6.50;99.90;;;;;;5064893;28;39642;-78
2022/03/28 07:08:42;;;;;;;41.73;13.43;;;6.60;99.90;;;;;;5060208;28;39772;-79
2022/03/28 07:11:08;;;;;;;46.73;15.30;;;6.70;99.90;;;;;;5059638;28;38407;-78
2022/03/28 07:13:34;;;;;;;40.17;14.87;;;6.70;99.90;;;;;;5078938;28;38418;-78
2022/03/28 07:16:00;;;;;;;34.87;13.53;;;6.80;99.90;;;;;;5064153;28;38910;-78
2022/03/28 07:18:26;;;;;;;42.03;13.83;;;6.90;99.90;;;;;;5063888;27;38504;-78
2022/03/28 07:20:52;;;;;;;41.07;15.77;;;6.90;99.90;;;;;;5063291;28;38654;-78
2022/03/28 07:23:19;;;;;;;42.17;15.87;;;7.10;99.90;;;;;;5062781;27;37843;-78
2022/03/28 07:25:46;;;;;;;41.30;14.73;;;7.10;99.90;;;;;;5059970;28;40227;-78
2022/03/28 07:28:14;;;;;;;40.87;15.80;;;7.20;99.90;;;;;;5065267;27;38135;-78
2022/03/28 07:30:41;;;;;;;31.30;13.73;;;7.30;99.90;;;;;;5061815;28;39006;-79
2022/03/28 07:33:08;;;;;;;49.20;15.03;;;7.40;99.90;;;;;;5057671;28;37612;-79
2022/03/28 07:35:35;;;;;;;45.93;16.57;;;7.50;99.90;;;;;;5078741;28;40614;-78
2022/03/28 07:38:07;;;;;;;39.27;15.07;;;7.50;99.90;;;;;;5067267;28;38057;-77
2022/03/28 07:40:34;;;;;;;40.23;14.90;;;7.60;99.90;;;;;;5066475;28;38902;-78
2022/03/28 07:43:00;;;;;;;41.47;14.63;;;7.70;99.90;;;;;;5077355;28;37781;-78
2022/03/28 07:45:27;;;;;;;38.87;16.30;;;7.70;99.90;;;;;;5045188;28;40406;-79
2022/03/28 07:47:53;;;;;;;31.20;14.00;;;7.70;99.90;;;;;;5062839;28;38921;-78
2022/03/28 07:50:19;;;;;;;31.23;14.03;;;7.80;99.90;;;;;;5062199;28;39579;-78
2022/03/28 07:52:45;;;;;;;39.37;15.00;;;8.00;99.90;;;;;;5061234;28;38328;-78
2022/03/28 07:55:13;;;;;;;29.83;13.67;;;8.10;99.90;;;;;;5060359;28;40627;-78
2022/03/28 07:57:40;;;;;;;30.13;13.73;;;8.20;99.90;;;;;;5062651;28;39268;-78
2022/03/28 08:00:11;;;;;;;34.30;14.70;;;8.30;99.90;;;;;;5060878;28;39540;-78
2022/03/28 08:02:38;;;;;;;36.47;14.13;;;8.40;99.90;;;;;;5064539;28;37537;-78
2022/03/28 08:05:06;;;;;;;40.50;15.50;;;8.40;99.90;;;;;;5059060;28;38654;-78
2022/03/28 08:07:34;;;;;;;36.00;14.33;;;8.50;99.90;;;;;;5064927;28;39143;-79
2022/03/28 08:10:01;;;;;;;31.83;13.50;;;8.60;99.90;;;;;;5057662;28;37495;-76
2022/03/28 08:12:28;;;;;;;38.27;15.00;;;8.70;99.90;;;;;;5060440;28;47902;-76
2022/03/28 08:14:54;;;;;;;30.90;12.50;;;8.80;99.90;;;;;;5063330;28;37927;-79
2022/03/28 08:17:20;;;;;;;28.83;14.30;;;8.90;99.90;;;;;;5066632;27;39817;-78
2022/03/28 08:19:47;;;;;;;28.80;13.30;;;9.00;99.90;;;;;;5061251;28;38090;-75
2022/03/28 08:22:14;;;;;;;32.60;13.85;;;9.10;99.90;;;;;;5059877;28;37425;-76
2022/03/28 08:24:40;;;;;;;33.63;14.50;;;9.20;99.90;;;;;;5066051;28;39025;-76
2022/03/28 08:27:06;;;;;;;33.42;14.05;;;9.40;99.90;;;;;;5056690;27;37152;-76
2022/03/28 08:29:33;;;;;;;29.85;14.05;;;9.50;99.90;;;;;;5074931;28;36989;-76
2022/03/28 08:32:00;;;;;;;31.15;14.80;;;9.70;99.90;;;;;;5061691;28;36139;-76
2022/03/28 08:34:26;;;;;;;34.38;14.05;;;9.90;99.90;;;;;;5057813;28;38906;-77
2022/03/28 08:36:52;;;;;;;39.72;14.77;;;10.10;99.90;;;;;;5060954;28;38324;-76
2022/03/28 08:39:18;;;;;;;34.83;14.60;;;10.30;99.90;;;;;;5062319;28;38530;-76
2022/03/28 08:41:47;;;;;;;31.60;14.15;;;10.40;99.90;;;;;;5061998;28;38359;-77
2022/03/28 08:44:13;;;;;;;29.15;14.10;;;10.60;99.90;;;;;;5058697;28;37913;-77
2022/03/28 08:46:42;;;;;;;31.27;14.65;;;10.70;99.90;;;;;;5065476;28;38628;-77
2022/03/28 08:49:09;;;;;;;36.63;15.38;;;10.70;99.90;;;;;;5062414;28;38291;-77
2022/03/28 08:51:36;;;;;;;36.13;16.50;;;10.80;99.90;;;;;;5077786;28;36552;-79
2022/03/28 08:54:03;;;;;;;36.10;16.80;;;10.80;99.90;;;;;;5062820;28;37777;-75
2022/03/28 08:56:29;;;;;;;29.08;13.82;;;10.90;99.90;;;;;;5061379;28;38358;-77
2022/03/28 08:58:55;;;;;;;29.75;14.23;;;11.00;99.90;;;;;;5060623;28;38623;-78
2022/03/28 09:01:22;;;;;;;34.28;15.25;;;11.10;99.90;;;;;;5053010;28;36526;-81
2022/03/28 09:03:49;;;;;;;33.17;14.20;;;11.20;99.90;;;;;;5061149;28;37948;-80
2022/03/28 09:06:36;;;;;;;28.77;14.10;;;11.40;99.90;;;;;;5060545;28;37238;-80
2022/03/28 09:09:22;;;;;;;30.92;14.25;;;11.60;99.90;;;;;;5055629;28;38139;-79
2022/03/28 09:11:52;;;;;;;27.48;14.80;;;11.80;99.90;;;;;;5061639;28;36296;-78
2022/03/28 09:14:27;;;;;;;29.08;14.15;;;12.00;99.90;;;;;;5058674;28;37944;-81
2022/03/28 09:17:06;;;;;;;29.95;15.07;;;12.20;99.90;;;;;;5059537;28;37551;-80
2022/03/28 09:19:43;;;;;;;28.42;15.43;;;12.20;99.90;;;;;;5032115;28;47622;-80
2022/03/28 09:22:14;;;;;;;29.13;14.93;;;12.30;99.90;;;;;;5076335;28;37390;-81
2022/03/28 09:24:41;;;;;;;31.10;15.38;;;12.50;99.90;;;;;;5061789;28;38414;-80
2022/03/28 09:27:19;;;;;;;30.58;15.63;;;12.80;99.90;;;;;;5058653;28;37350;-80
2022/03/28 09:29:52;;;;;;;27.42;14.48;;;12.80;99.90;;;;;;5061235;28;38334;-80
2022/03/28 09:32:23;;;;;;;27.67;14.43;;;13.00;99.90;;;;;;5078505;27;36118;-80
2022/03/28 09:35:22;;;;;;;28.27;14.48;;;13.20;99.90;;;;;;5063171;28;38846;-80
2022/03/28 09:38:02;;;;;;;29.77;15.60;;;13.30;99.90;;;;;;5059027;28;48637;-79
2022/03/28 09:40:51;;;;;;;27.35;15.27;;;13.30;99.90;;;;;;5058265;28;49914;-79
2022/03/28 09:43:21;;;;;;;35.53;15.90;;;13.60;99.90;;;;;;5055725;28;39142;-80
2022/03/28 09:45:53;;;;;;;31.05;14.80;;;13.90;99.90;;;;;;5061414;28;39438;-79
2022/03/28 09:48:22;;;;;;;30.08;14.82;;;13.80;99.90;;;;;;5058336;28;38524;-81
2022/03/28 09:50:58;;;;;;;29.85;15.35;;;13.90;99.90;;;;;;5059096;28;38049;-80
2022/03/28 09:53:33;;;;;;;31.27;14.10;;;13.90;99.90;;;;;;5062376;28;37719;-79
2022/03/28 09:56:08;;;;;;;30.08;14.50;;;14.20;99.90;;;;;;5044821;28;40480;-79
2022/03/28 09:58:47;;;;;;;29.83;14.30;;;14.40;99.90;;;;;;5059451;28;48292;-77
2022/03/28 10:01:20;;;;;;;26.98;14.15;;;14.40;99.90;;;;;;5062519;28;37622;-77
2022/03/28 10:03:49;;;;;;;30.23;13.80;;;14.70;99.90;;;;;;5059341;28;38898;-77
2022/03/28 10:06:16;;;;;;;28.67;14.63;;;14.80;99.90;;;;;;5057481;28;40544;-77
2022/03/28 10:08:44;;;;;;;27.73;14.65;;;14.90;99.90;;;;;;5051659;28;39845;-77
2022/03/28 10:11:10;;;;;;;34.30;14.20;;;15.00;99.90;;;;;;5056503;28;38555;-77
2022/03/28 10:13:37;;;;;;;29.15;14.80;;;15.20;99.90;;;;;;5061554;28;37899;-77
2022/03/28 10:16:04;;;;;;;30.23;14.80;;;15.10;99.90;;;;;;5055966;28;39601;-77
2022/03/28 10:18:33;;;;;;;30.00;14.18;;;15.20;99.90;;;;;;5061246;28;38341;-77
2022/03/28 10:21:06;;;;;;;27.17;13.95;;;15.30;99.90;;;;;;5057553;28;37965;-78
2022/03/28 10:23:47;;;;;;;37.08;14.63;;;15.40;99.90;;;;;;5056841;28;48382;-78
2022/03/28 10:26:16;;;;;;;35.10;14.95;;;15.60;99.90;;;;;;5058951;28;38743;-77
2022/03/28 10:28:58;;;;;;;29.73;14.55;;;15.70;99.90;;;;;;5065074;27;38407;-77
2022/03/28 10:31:24;;;;;;;33.45;15.15;;;15.80;99.90;;;;;;5055681;28;39571;-78
2022/03/28 10:33:54;;;;;;;29.05;13.05;;;15.90;99.90;;;;;;5063576;27;37435;-78
2022/03/28 10:36:23;;;;;;;28.75;12.95;;;15.70;99.90;;;;;;5071643;28;40042;-80
2022/03/28 10:38:51;;;;;;;28.80;13.45;;;15.60;99.90;;;;;;5063536;28;40050;-77
2022/03/28 10:41:19;;;;;;;28.55;13.90;;;15.90;99.90;;;;;;5063203;28;38583;-78
2022/03/28 10:43:45;;;;;;;25.00;12.02;;;16.20;99.90;;;;;;5062469;28;37484;-79
2022/03/28 10:46:14;;;;;;;28.70;13.48;;;16.20;99.90;;;;;;5052576;28;39256;-79
2022/03/28 10:48:42;;;;;;;30.90;14.23;;;16.50;99.90;;;;;;5059901;28;38941;-80
2022/03/28 10:51:12;;;;;;;29.73;12.70;;;16.60;99.90;;;;;;5055392;28;38801;-79
2022/03/28 10:53:41;;;;;;;28.02;12.63;;;16.70;99.90;;;;;;5062373;27;37335;-80
2022/03/28 10:56:15;;;;;;;25.08;11.98;;;16.70;99.90;;;;;;5063849;28;38584;-80
2022/03/28 10:58:52;;;;;;;27.70;12.77;;;16.50;99.90;;;;;;5063632;28;39231;-80
2022/03/28 11:01:28;;;;;;;27.85;11.85;;;16.50;99.90;;;;;;5058251;28;38871;-79
2022/03/28 11:03:55;;;;;;;21.95;11.68;;;16.50;99.90;;;;;;5078404;28;38348;-80
2022/03/28 11:07:06;;;;;;;25.77;12.13;;;16.60;99.90;;;;;;5064839;28;39638;-79
2022/03/28 11:09:41;;;;;;;23.92;11.65;;;16.70;99.90;;;;;;5062532;28;47507;-80
2022/03/28 11:12:28;;;;;;;29.42;12.68;;;16.60;99.90;;;;;;5063381;28;38310;-79
2022/03/28 11:14:57;;;;;;;28.92;12.82;;;16.90;99.90;;;;;;5054711;28;37806;-78
2022/03/28 11:17:36;;;;;;;21.73;11.23;;;17.00;99.90;;;;;;5058035;28;40711;-79
2022/03/28 11:20:11;;;;;;;20.45;10.93;;;17.30;99.90;;;;;;5054532;28;39263;-79
2022/03/28 11:22:44;;;;;;;25.63;11.02;;;17.30;99.90;;;;;;5077370;28;38250;-78
2022/03/28 11:25:38;;;;;;;27.17;11.50;;;17.50;99.90;;;;;;5065159;28;37475;-78
2022/03/28 11:28:34;;;;;;;24.20;10.63;;;17.70;99.90;;;;;;5062122;28;38620;-77
2022/03/28 11:31:10;;;;;;;23.25;10.95;;;17.90;99.90;;;;;;5062158;28;38426;-78
2022/03/28 11:33:43;;;;;;;28.67;10.77;;;17.90;99.90;;;;;;5060288;28;48382;-78
2022/03/28 11:36:14;;;;;;;26.45;11.73;;;18.00;99.90;;;;;;5050814;28;37933;-78
2022/03/28 11:38:46;;;;;;;25.10;10.23;;;17.90;99.90;;;;;;5063201;28;38725;-78
2022/03/28 11:41:13;;;;;;;28.33;10.50;;;18.00;99.90;;;;;;5053900;28;38215;-77
2022/03/28 11:43:42;;;;;;;28.48;12.02;;;18.00;99.90;;;;;;5069354;28;37025;-78
2022/03/28 11:46:24;;;;;;;21.67;10.10;;;17.70;99.90;;;;;;5060653;28;36870;-77
2022/03/28 11:49:13;;;;;;;23.02;10.00;;;17.80;99.90;;;;;;5055586;28;38757;-78
2022/03/28 11:51:43;;;;;;;29.95;9.65;;;17.90;99.90;;;;;;5053414;28;49887;-77
2022/03/28 11:54:16;;;;;;;23.63;9.45;;;18.00;99.90;;;;;;5057309;28;38872;-76
2022/03/28 11:59:31;;;;;;;24.17;9.10;;;17.70;99.90;;;;;;5063253;28;49319;-77
2022/03/28 12:02:03;;;;;;;23.10;9.93;;;17.80;99.90;;;;;;5065248;28;38251;-79
2022/03/28 12:04:29;;;;;;;22.95;9.48;;;17.60;99.90;;;;;;5059299;28;48918;-78
2022/03/28 12:06:56;;;;;;;21.23;9.05;;;17.30;99.90;;;;;;5059767;28;36942;-77
2022/03/28 12:09:22;;;;;;;21.55;8.73;;;17.30;99.90;;;;;;5054380;28;39891;-77
2022/03/28 12:11:54;;;;;;;19.77;7.72;;;17.80;99.90;;;;;;5056743;28;40390;-77
2022/03/28 12:14:21;;;;;;;24.00;8.88;;;18.20;99.90;;;;;;5060209;28;38623;-77
2022/03/28 12:16:49;;;;;;;23.63;8.98;;;18.50;99.90;;;;;;5062041;28;40023;-77
2022/03/28 12:19:36;;;;;;;23.58;8.88;;;18.70;99.90;;;;;;5073912;27;39350;-78
2022/03/28 12:22:21;;;;;;;20.00;8.38;;;18.60;99.90;;;;;;5074248;28;37717;-77
2022/03/28 12:24:51;;;;;;;21.35;8.73;;;18.40;99.90;;;;;;5062714;28;38338;-77
2022/03/28 12:27:19;;;;;;;22.40;8.73;;;18.80;99.90;;;;;;5059886;28;38208;-78
2022/03/28 12:29:46;;;;;;;22.92;9.07;;;19.00;99.90;;;;;;5059261;28;38780;-77
2022/03/28 12:32:16;;;;;;;22.33;8.88;;;19.10;99.90;;;;;;5057408;28;39161;-77
2022/03/28 12:34:43;;;;;;;20.48;9.18;;;18.70;99.90;;;;;;5059829;28;37780;-76
2022/03/28 12:37:14;;;;;;;22.92;9.15;;;18.70;99.90;;;;;;5061515;28;37232;-77
2022/03/28 12:39:43;;;;;;;20.70;9.63;;;18.60;99.90;;;;;;5059464;28;38705;-78
2022/03/28 12:42:23;;;;;;;22.45;9.38;;;18.80;99.90;;;;;;5060325;28;38541;-77
2022/03/28 12:44:53;;;;;;;25.20;11.48;;;18.70;99.90;;;;;;5075203;28;36876;-79
2022/03/28 12:47:19;;;;;;;23.17;12.23;;;18.40;99.90;;;;;;5055856;28;36907;-78
2022/03/28 12:49:45;;;;;;;25.55;13.35;;;17.90;99.90;;;;;;5059135;28;38779;-78
2022/03/28 12:52:20;;;;;;;26.17;12.60;;;17.70;99.90;;;;;;5057601;28;38851;-82
2022/03/28 12:54:47;;;;;;;28.00;13.43;;;17.90;99.90;;;;;;5056141;28;38589;-79